createdAt,value
2017-11-27T00:00:00.369Z,984.5
2017-11-27T00:01:05.265Z,984.3
2017-11-27T00:02:08.096Z,984.5
2017-11-27T00:03:10.672Z,984.5
2017-11-27T00:04:14.991Z,984.5
2017-11-27T00:05:17.618Z,984.5
2017-11-27T00:06:20.331Z,984.6
2017-11-27T00:07:23.013Z,984.5
2017-11-27T00:08:25.657Z,984.6
2017-11-27T00:09:28.279Z,984.6
2017-11-27T00:10:30.994Z,984.6
2017-11-27T00:11:33.527Z,984.6
2017-11-27T00:12:36.827Z,984.6
2017-11-27T00:13:39.406Z,984.6
2017-11-27T00:14:42.027Z,984.7
2017-11-27T00:15:44.471Z,984.7
2017-11-27T00:16:47.005Z,984.6
2017-11-27T00:17:49.494Z,984.7
2017-11-27T00:18:52.049Z,984.7
2017-11-27T00:19:54.624Z,984.7
2017-11-27T00:20:57.258Z,984.8
2017-11-27T00:22:04.450Z,984.7
2017-11-27T00:23:07.578Z,984.7
2017-11-27T00:24:10.110Z,984.5
2017-11-27T00:25:12.699Z,984.7
2017-11-27T00:26:15.283Z,984.8
2017-11-27T00:27:17.890Z,984.8
2017-11-27T00:28:20.428Z,984.7
2017-11-27T00:29:23.090Z,984.8
2017-11-27T00:30:25.723Z,984.8
2017-11-27T00:31:28.305Z,984.8
2017-11-27T00:32:31.070Z,984.8
2017-11-27T00:33:33.588Z,984.6
2017-11-27T00:34:36.150Z,984.8
2017-11-27T00:35:38.827Z,984.9
2017-11-27T00:36:41.430Z,984.8
2017-11-27T00:37:44.014Z,984.8
2017-11-27T00:38:46.572Z,984.8
2017-11-27T00:39:49.106Z,984.9
2017-11-27T00:40:51.659Z,984.9
2017-11-27T00:41:54.142Z,984.9
2017-11-27T00:42:56.683Z,984.9
2017-11-27T00:43:59.156Z,984.9
2017-11-27T00:45:01.883Z,984.9
2017-11-27T00:46:04.425Z,985
2017-11-27T00:47:07.140Z,984.9
2017-11-27T00:48:09.680Z,984.9
2017-11-27T00:49:12.358Z,984.9
2017-11-27T00:50:15.036Z,984.8
2017-11-27T00:51:17.560Z,984.9
2017-11-27T00:52:20.155Z,984.9
2017-11-27T00:53:22.807Z,984.9
2017-11-27T00:54:25.366Z,984.9
2017-11-27T00:55:27.929Z,985
2017-11-27T00:56:30.617Z,984.9
2017-11-27T00:57:33.207Z,984.9
2017-11-27T00:58:35.698Z,985
2017-11-27T00:59:38.288Z,985
2017-11-27T01:00:40.985Z,985
2017-11-27T01:01:43.478Z,984.9
2017-11-27T01:02:45.963Z,984.9
2017-11-27T01:03:48.420Z,984.9
2017-11-27T01:04:50.938Z,984.8
2017-11-27T01:05:53.453Z,984.9
2017-11-27T01:06:55.908Z,984.9
2017-11-27T01:07:58.457Z,985
2017-11-27T01:09:01.140Z,985
2017-11-27T01:10:05.945Z,985
2017-11-27T01:11:08.484Z,984.9
2017-11-27T01:12:11.360Z,984.9
2017-11-27T01:13:14.692Z,984.9
2017-11-27T01:14:18.107Z,985
2017-11-27T01:15:20.847Z,984.9
2017-11-27T01:16:23.506Z,984.9
2017-11-27T01:17:26.094Z,984.9
2017-11-27T01:18:28.679Z,984.9
2017-11-27T01:19:31.221Z,984.9
2017-11-27T01:20:33.907Z,984.9
2017-11-27T01:21:36.398Z,985
2017-11-27T01:22:38.896Z,985
2017-11-27T01:23:41.428Z,985
2017-11-27T01:24:43.957Z,985
2017-11-27T01:25:46.634Z,985
2017-11-27T01:26:49.261Z,985
2017-11-27T01:27:51.776Z,985.1
2017-11-27T01:28:54.289Z,985
2017-11-27T01:29:57.342Z,985
2017-11-27T01:31:01.137Z,985.1
2017-11-27T01:32:03.725Z,985
2017-11-27T01:33:06.287Z,985
2017-11-27T01:34:08.853Z,985
2017-11-27T01:35:13.311Z,985.1
2017-11-27T01:36:15.886Z,985.1
2017-11-27T01:37:18.464Z,985.1
2017-11-27T01:38:21.082Z,985.1
2017-11-27T01:39:23.816Z,985.1
2017-11-27T01:40:27.210Z,985.2
2017-11-27T01:41:29.731Z,985.1
2017-11-27T01:42:32.299Z,985.1
2017-11-27T01:43:34.784Z,985
2017-11-27T01:44:37.304Z,985.1
2017-11-27T01:45:39.870Z,985.1
2017-11-27T01:46:42.400Z,985.1
2017-11-27T01:47:44.901Z,985
2017-11-27T01:48:47.678Z,985.1
2017-11-27T01:49:50.166Z,985
2017-11-27T01:50:52.747Z,985
2017-11-27T01:51:55.212Z,985
2017-11-27T01:52:57.643Z,985
2017-11-27T01:54:00.094Z,985
2017-11-27T01:55:04.600Z,985.1
2017-11-27T01:56:07.117Z,985.1
2017-11-27T01:57:09.665Z,985.1
2017-11-27T01:58:12.320Z,985.1
2017-11-27T01:59:14.999Z,985
2017-11-27T02:00:17.831Z,985
2017-11-27T02:01:20.552Z,985
2017-11-27T02:02:23.227Z,985
2017-11-27T02:03:25.754Z,985
2017-11-27T02:04:28.256Z,985
2017-11-27T02:05:31.126Z,985
2017-11-27T02:06:33.596Z,985
2017-11-27T02:07:36.113Z,985
2017-11-27T02:08:38.618Z,985
2017-11-27T02:09:41.167Z,985
2017-11-27T02:10:43.691Z,985
2017-11-27T02:11:46.246Z,985
2017-11-27T02:12:48.715Z,985
2017-11-27T02:13:51.308Z,984.9
2017-11-27T02:14:53.916Z,985
2017-11-27T02:15:56.436Z,985
2017-11-27T02:16:58.897Z,985
2017-11-27T02:18:01.801Z,985
2017-11-27T02:19:04.406Z,985
2017-11-27T02:20:07.610Z,985
2017-11-27T02:21:10.282Z,985.1
2017-11-27T02:22:14.541Z,985
2017-11-27T02:23:18.036Z,985
2017-11-27T02:24:20.747Z,985
2017-11-27T02:25:23.384Z,985
2017-11-27T02:26:25.945Z,985
2017-11-27T02:27:28.479Z,985
2017-11-27T02:28:31.095Z,984.9
2017-11-27T02:29:33.675Z,985
2017-11-27T02:30:36.315Z,984.9
2017-11-27T02:31:38.921Z,984.9
2017-11-27T02:32:41.521Z,984.9
2017-11-27T02:33:44.082Z,984.9
2017-11-27T02:34:46.687Z,984.9
2017-11-27T02:35:49.301Z,984.9
2017-11-27T02:36:51.819Z,985
2017-11-27T02:37:54.295Z,985
2017-11-27T02:38:56.772Z,984.9
2017-11-27T02:39:59.265Z,985
2017-11-27T02:41:01.841Z,985
2017-11-27T02:42:04.561Z,984.9
2017-11-27T02:43:07.181Z,984.9
2017-11-27T02:44:09.728Z,984.9
2017-11-27T02:45:15.577Z,984.9
2017-11-27T02:46:18.092Z,984.9
2017-11-27T02:47:20.696Z,984.9
2017-11-27T02:48:23.292Z,984.9
2017-11-27T02:49:25.950Z,984.9
2017-11-27T02:50:28.490Z,984.8
2017-11-27T02:51:30.979Z,984.9
2017-11-27T02:52:33.602Z,984.7
2017-11-27T02:53:36.136Z,984.9
2017-11-27T02:54:38.655Z,984.9
2017-11-27T02:55:41.304Z,984.8
2017-11-27T02:56:43.822Z,984.8
2017-11-27T02:57:46.463Z,984.8
2017-11-27T02:58:48.960Z,984.9
2017-11-27T02:59:51.445Z,984.8
2017-11-27T03:00:53.942Z,984.8
2017-11-27T03:02:05.214Z,984.9
2017-11-27T03:03:07.715Z,984.8
2017-11-27T03:04:10.776Z,984.8
2017-11-27T03:05:13.527Z,984.7
2017-11-27T03:06:16.405Z,984.8
2017-11-27T03:07:19.043Z,984.9
2017-11-27T03:08:21.636Z,984.9
2017-11-27T03:09:24.271Z,984.8
2017-11-27T03:10:26.927Z,984.9
2017-11-27T03:11:29.485Z,984.8
2017-11-27T03:12:32.016Z,984.6
2017-11-27T03:13:34.558Z,984.7
2017-11-27T03:14:37.162Z,984.8
2017-11-27T03:15:39.733Z,984.8
2017-11-27T03:16:42.178Z,984.8
2017-11-27T03:17:45.610Z,984.7
2017-11-27T03:18:48.070Z,984.8
2017-11-27T03:19:50.852Z,984.7
2017-11-27T03:20:53.350Z,984.8
2017-11-27T03:21:55.857Z,984.7
2017-11-27T03:22:58.386Z,984.7
2017-11-27T03:24:01.052Z,984.7
2017-11-27T03:25:05.923Z,984.8
2017-11-27T03:26:08.473Z,984.8
2017-11-27T03:27:11.007Z,984.8
2017-11-27T03:28:14.752Z,984.8
2017-11-27T03:29:17.364Z,984.8
2017-11-27T03:30:20.222Z,984.8
2017-11-27T03:31:23.168Z,984.7
2017-11-27T03:32:25.775Z,984.7
2017-11-27T03:33:28.364Z,984.7
2017-11-27T03:34:30.909Z,984.7
2017-11-27T03:35:33.561Z,984.7
2017-11-27T03:36:36.085Z,984.6
2017-11-27T03:37:38.673Z,984.7
2017-11-27T03:38:41.219Z,984.7
2017-11-27T03:39:43.788Z,984.6
2017-11-27T03:40:46.365Z,984.6
2017-11-27T03:41:48.868Z,984.7
2017-11-27T03:42:51.543Z,984.6
2017-11-27T03:43:54.061Z,984.6
2017-11-27T03:44:56.545Z,984.6
2017-11-27T03:45:59.023Z,984.6
2017-11-27T03:47:01.672Z,984.6
2017-11-27T03:48:04.323Z,984.5
2017-11-27T03:49:06.952Z,984.5
2017-11-27T03:50:10.491Z,984.4
2017-11-27T03:51:15.338Z,984.5
2017-11-27T03:52:17.963Z,984.4
2017-11-27T03:53:20.624Z,984.4
2017-11-27T03:54:23.297Z,984.4
2017-11-27T03:55:26.094Z,984.3
2017-11-27T03:56:28.614Z,984.4
2017-11-27T03:57:31.539Z,984.4
2017-11-27T03:58:34.100Z,984.4
2017-11-27T03:59:36.751Z,984.4
2017-11-27T04:00:39.685Z,984.3
2017-11-27T04:01:42.310Z,984.1
2017-11-27T04:02:45.048Z,984.3
2017-11-27T04:03:47.583Z,984.4
2017-11-27T04:04:50.121Z,984.2
2017-11-27T04:05:52.822Z,984.3
2017-11-27T04:06:55.367Z,984.2
2017-11-27T04:07:57.887Z,984.2
2017-11-27T04:09:00.446Z,984.2
2017-11-27T04:10:05.025Z,984.2
2017-11-27T04:11:07.638Z,984.2
2017-11-27T04:12:10.230Z,984.2
2017-11-27T04:13:14.357Z,984.2
2017-11-27T04:14:16.962Z,984.2
2017-11-27T04:15:19.669Z,984.1
2017-11-27T04:16:22.298Z,984.2
2017-11-27T04:17:26.098Z,984.1
2017-11-27T04:18:28.829Z,984.1
2017-11-27T04:19:31.729Z,984
2017-11-27T04:20:35.668Z,983.9
2017-11-27T04:21:38.207Z,984
2017-11-27T04:22:41.330Z,984.1
2017-11-27T04:23:43.921Z,984
2017-11-27T04:24:46.426Z,984
2017-11-27T04:25:49.078Z,984
2017-11-27T04:26:51.948Z,983.9
2017-11-27T04:27:54.488Z,983.9
2017-11-27T04:28:57.024Z,984
2017-11-27T04:29:59.893Z,983.9
2017-11-27T04:31:03.368Z,983.9
2017-11-27T04:32:06.044Z,983.9
2017-11-27T04:33:08.882Z,984
2017-11-27T04:34:11.650Z,984
2017-11-27T04:35:14.503Z,983.9
2017-11-27T04:36:17.159Z,984
2017-11-27T04:37:19.840Z,983.9
2017-11-27T04:38:22.463Z,983.9
2017-11-27T04:39:25.077Z,983.9
2017-11-27T04:40:27.804Z,983.8
2017-11-27T04:41:30.385Z,983.8
2017-11-27T04:42:32.941Z,983.9
2017-11-27T04:43:35.432Z,983.8
2017-11-27T04:44:37.961Z,983.9
2017-11-27T04:45:40.577Z,983.8
2017-11-27T04:46:43.138Z,983.9
2017-11-27T04:47:45.645Z,983.8
2017-11-27T04:48:48.168Z,983.9
2017-11-27T04:49:50.758Z,983.8
2017-11-27T04:50:53.488Z,983.8
2017-11-27T04:51:55.995Z,983.8
2017-11-27T04:52:58.486Z,983.8
2017-11-27T04:54:01.112Z,983.7
2017-11-27T04:55:05.731Z,983.7
2017-11-27T04:56:08.265Z,983.8
2017-11-27T04:57:10.877Z,983.7
2017-11-27T04:58:14.655Z,983.8
2017-11-27T04:59:17.418Z,983.6
2017-11-27T05:00:20.250Z,983.7
2017-11-27T05:01:23.030Z,983.8
2017-11-27T05:02:25.600Z,983.7
2017-11-27T05:03:28.250Z,983.7
2017-11-27T05:04:30.774Z,983.7
2017-11-27T05:05:33.456Z,983.7
2017-11-27T05:06:44.573Z,983.7
2017-11-27T05:07:47.094Z,983.6
2017-11-27T05:08:49.655Z,983.7
2017-11-27T05:09:52.243Z,983.7
2017-11-27T05:10:54.758Z,983.6
2017-11-27T05:11:57.291Z,983.7
2017-11-27T05:12:59.819Z,983.7
2017-11-27T05:14:02.433Z,983.7
2017-11-27T05:15:06.063Z,983.6
2017-11-27T05:16:08.974Z,983.7
2017-11-27T05:17:13.684Z,983.6
2017-11-27T05:18:16.459Z,983.7
2017-11-27T05:19:19.061Z,983.7
2017-11-27T05:20:21.807Z,983.6
2017-11-27T05:21:24.584Z,983.6
2017-11-27T05:22:27.118Z,983.5
2017-11-27T05:23:30.023Z,983.4
2017-11-27T05:24:32.822Z,983.5
2017-11-27T05:25:35.564Z,983.6
2017-11-27T05:26:38.226Z,983.6
2017-11-27T05:27:41.966Z,983.6
2017-11-27T05:28:44.774Z,983.6
2017-11-27T05:29:47.629Z,983.6
2017-11-27T05:30:50.333Z,983.6
2017-11-27T05:31:52.942Z,983.6
2017-11-27T05:32:55.501Z,983.5
2017-11-27T05:33:58.218Z,983.6
2017-11-27T05:35:00.955Z,983.6
2017-11-27T05:36:03.906Z,983.6
2017-11-27T05:37:06.528Z,983.5
2017-11-27T05:38:09.110Z,983.3
2017-11-27T05:39:11.782Z,983.5
2017-11-27T05:40:14.465Z,983.4
2017-11-27T05:41:17.170Z,983.4
2017-11-27T05:42:20.213Z,983.4
2017-11-27T05:43:24.006Z,983.4
2017-11-27T05:44:26.662Z,983.4
2017-11-27T05:45:29.367Z,983.4
2017-11-27T05:46:31.979Z,983.5
2017-11-27T05:47:34.675Z,983.5
2017-11-27T05:48:37.245Z,983.4
2017-11-27T05:49:39.828Z,983.3
2017-11-27T05:50:42.701Z,983.4
2017-11-27T05:51:46.816Z,983.4
2017-11-27T05:52:52.624Z,983.4
2017-11-27T05:53:55.735Z,983.4
2017-11-27T05:54:58.266Z,983.4
2017-11-27T05:56:00.816Z,983.4
2017-11-27T05:57:03.508Z,983.5
2017-11-27T05:58:06.202Z,983.4
2017-11-27T05:59:09.290Z,983.4
2017-11-27T06:00:15.316Z,983.3
2017-11-27T06:01:26.938Z,983.4
2017-11-27T06:02:29.702Z,983.4
2017-11-27T06:03:32.244Z,983.3
2017-11-27T06:04:34.766Z,983.3
2017-11-27T06:05:37.458Z,983.3
2017-11-27T06:06:40.073Z,983.2
2017-11-27T06:07:42.611Z,983
2017-11-27T06:08:46.275Z,983.3
2017-11-27T06:09:48.803Z,983.2
2017-11-27T06:10:51.461Z,983.1
2017-11-27T06:11:54.060Z,983.2
2017-11-27T06:13:02.960Z,983.1
2017-11-27T06:14:05.974Z,983.3
2017-11-27T06:15:11.438Z,983.2
2017-11-27T06:16:14.227Z,983.2
2017-11-27T06:17:17.706Z,983.1
2017-11-27T06:18:20.326Z,983.1
2017-11-27T06:19:23.139Z,983.1
2017-11-27T06:20:25.982Z,983.1
2017-11-27T06:21:28.770Z,983.1
2017-11-27T06:22:31.392Z,983
2017-11-27T06:23:34.071Z,983
2017-11-27T06:24:36.687Z,983
2017-11-27T06:25:39.499Z,983
2017-11-27T06:26:42.158Z,982.9
2017-11-27T06:27:45.157Z,982.9
2017-11-27T06:28:47.911Z,982.9
2017-11-27T06:29:52.216Z,983
2017-11-27T06:30:55.968Z,982.9
2017-11-27T06:31:59.836Z,983
2017-11-27T06:33:04.575Z,982.9
2017-11-27T06:34:09.743Z,982.9
2017-11-27T06:35:14.445Z,982.9
2017-11-27T06:36:17.431Z,982.9
2017-11-27T06:37:20.558Z,983
2017-11-27T06:38:23.190Z,983
2017-11-27T06:39:26.053Z,983
2017-11-27T06:40:29.819Z,983.1
2017-11-27T06:41:32.475Z,983.1
2017-11-27T06:42:35.337Z,983.1
2017-11-27T06:43:37.963Z,983
2017-11-27T06:44:40.547Z,982.8
2017-11-27T06:45:44.986Z,982.9
2017-11-27T06:46:47.558Z,983
2017-11-27T06:47:50.201Z,983.1
2017-11-27T06:48:52.992Z,982.9
2017-11-27T06:49:55.604Z,982.9
2017-11-27T06:50:59.002Z,982.8
2017-11-27T06:52:01.694Z,982.8
2017-11-27T06:53:06.476Z,982.8
2017-11-27T06:54:09.747Z,982.8
2017-11-27T06:55:14.798Z,982.8
2017-11-27T06:56:17.829Z,982.8
2017-11-27T06:57:20.737Z,982.8
2017-11-27T06:58:23.902Z,982.8
2017-11-27T06:59:26.647Z,982.8
2017-11-27T07:00:30.128Z,982.6
2017-11-27T07:01:33.639Z,982.8
2017-11-27T07:02:36.531Z,982.6
2017-11-27T07:03:39.398Z,982.8
2017-11-27T07:04:41.888Z,982.7
2017-11-27T07:05:47.950Z,982.7
2017-11-27T07:06:50.479Z,982.9
2017-11-27T07:07:53.094Z,982.9
2017-11-27T07:08:55.697Z,982.7
2017-11-27T07:09:58.470Z,982.8
2017-11-27T07:11:01.942Z,982.9
2017-11-27T07:12:10.945Z,982.9
2017-11-27T07:13:14.094Z,983
2017-11-27T07:14:16.893Z,982.9
2017-11-27T07:15:20.538Z,982.8
2017-11-27T07:16:23.603Z,982.9
2017-11-27T07:17:26.623Z,982.8
2017-11-27T07:18:29.578Z,982.8
2017-11-27T07:19:33.165Z,982.7
2017-11-27T07:20:35.989Z,982.8
2017-11-27T07:21:38.961Z,982.7
2017-11-27T07:22:41.723Z,982.7
2017-11-27T07:23:45.854Z,982.7
2017-11-27T07:24:48.959Z,982.7
2017-11-27T07:25:53.024Z,982.7
2017-11-27T07:26:57.155Z,982.6
2017-11-27T07:28:00.624Z,982.7
2017-11-27T07:29:10.679Z,982.7
2017-11-27T07:30:17.906Z,982.6
2017-11-27T07:31:21.451Z,982.6
2017-11-27T07:32:25.321Z,982.5
2017-11-27T07:33:28.510Z,982.7
2017-11-27T07:34:31.623Z,982.6
2017-11-27T07:35:35.617Z,982.6
2017-11-27T07:36:38.590Z,982.4
2017-11-27T07:37:41.778Z,982.6
2017-11-27T07:38:44.787Z,982.6
2017-11-27T07:39:48.084Z,982.6
2017-11-27T07:40:50.853Z,982.5
2017-11-27T07:41:53.450Z,982.5
2017-11-27T07:42:56.318Z,982.5
2017-11-27T07:44:00.855Z,982.5
2017-11-27T07:45:10.647Z,982.3
2017-11-27T07:46:15.865Z,982.4
2017-11-27T07:47:19.989Z,982.3
2017-11-27T07:48:23.204Z,982.4
2017-11-27T07:49:26.520Z,982.2
2017-11-27T07:50:30.398Z,982.3
2017-11-27T07:51:33.515Z,982.2
2017-11-27T07:52:36.381Z,982.3
2017-11-27T07:53:39.278Z,982.1
2017-11-27T07:54:41.959Z,982.3
2017-11-27T07:55:44.908Z,982.3
2017-11-27T07:56:47.778Z,982.2
2017-11-27T07:57:50.498Z,982.2
2017-11-27T07:58:53.126Z,982.4
2017-11-27T07:59:55.879Z,982.4
2017-11-27T08:00:58.782Z,982.3
2017-11-27T08:02:01.513Z,982.3
2017-11-27T08:03:04.161Z,982.3
2017-11-27T08:04:07.898Z,982.2
2017-11-27T08:05:15.080Z,982.2
2017-11-27T08:06:22.649Z,982.2
2017-11-27T08:07:25.602Z,982.2
2017-11-27T08:08:28.924Z,982.2
2017-11-27T08:09:31.663Z,982.2
2017-11-27T08:10:34.727Z,982.2
2017-11-27T08:11:37.610Z,982.2
2017-11-27T08:12:40.342Z,982.1
2017-11-27T08:13:43.200Z,982.1
2017-11-27T08:14:45.772Z,982.1
2017-11-27T08:15:49.185Z,982.1
2017-11-27T08:16:51.947Z,982
2017-11-27T08:17:55.188Z,982
2017-11-27T08:18:57.959Z,981.9
2017-11-27T08:20:00.518Z,982
2017-11-27T08:21:03.179Z,982
2017-11-27T08:22:05.966Z,981.9
2017-11-27T08:23:08.789Z,982
2017-11-27T08:24:12.389Z,981.9
2017-11-27T08:25:16.324Z,981.7
2017-11-27T08:26:19.066Z,981.9
2017-11-27T08:27:21.822Z,981.8
2017-11-27T08:28:24.658Z,981.9
2017-11-27T08:29:27.571Z,981.7
2017-11-27T08:30:30.547Z,981.9
2017-11-27T08:31:35.184Z,981.8
2017-11-27T08:32:38.149Z,981.7
2017-11-27T08:33:41.005Z,981.7
2017-11-27T08:34:43.852Z,981.6
2017-11-27T08:35:47.536Z,981.6
2017-11-27T08:36:50.514Z,981.3
2017-11-27T08:39:00.437Z,981.6
2017-11-27T08:40:08.467Z,981.6
2017-11-27T08:41:11.430Z,981.6
2017-11-27T08:42:15.817Z,981.5
2017-11-27T08:43:18.735Z,981.5
2017-11-27T08:44:21.507Z,981.5
2017-11-27T08:45:24.288Z,981.5
2017-11-27T08:46:27.081Z,981.5
2017-11-27T08:47:29.970Z,981.4
2017-11-27T08:48:32.968Z,981.4
2017-11-27T08:49:35.879Z,981.3
2017-11-27T08:50:39.135Z,981.4
2017-11-27T08:51:42.147Z,981.3
2017-11-27T08:52:44.793Z,981.2
2017-11-27T08:53:47.690Z,981.3
2017-11-27T08:54:50.352Z,981.3
2017-11-27T08:55:53.170Z,981.3
2017-11-27T08:56:55.834Z,981.3
2017-11-27T08:57:58.809Z,981.3
2017-11-27T08:59:01.515Z,981.2
2017-11-27T09:01:19.797Z,981.1
2017-11-27T09:02:31.752Z,981.1
2017-11-27T09:03:34.883Z,981.1
2017-11-27T09:04:43.466Z,981.1
2017-11-27T09:05:46.563Z,981.1
2017-11-27T09:06:50.625Z,981.2
2017-11-27T09:07:54.628Z,981.3
2017-11-27T09:08:57.229Z,981.1
2017-11-27T09:10:09.854Z,981.2
2017-11-27T09:11:13.620Z,981.1
2017-11-27T09:12:17.919Z,981.1
2017-11-27T09:13:21.943Z,981
2017-11-27T09:14:27.893Z,981
2017-11-27T09:15:32.286Z,980.9
2017-11-27T09:16:36.995Z,980.9
2017-11-27T09:17:40.391Z,980.9
2017-11-27T09:18:43.185Z,980.9
2017-11-27T09:19:51.871Z,980.7
2017-11-27T09:20:56.058Z,980.9
2017-11-27T09:21:58.826Z,980.8
2017-11-27T09:23:01.681Z,980.8
2017-11-27T09:24:05.751Z,980.7
2017-11-27T09:25:17.274Z,980.6
2017-11-27T09:26:20.208Z,980.7
2017-11-27T09:27:24.139Z,980.7
2017-11-27T09:28:27.504Z,980.7
2017-11-27T09:29:31.452Z,980.6
2017-11-27T09:30:35.926Z,980.6
2017-11-27T09:31:39.657Z,980.6
2017-11-27T09:32:42.590Z,980.6
2017-11-27T09:33:45.222Z,980.6
2017-11-27T09:34:48.126Z,980.7
2017-11-27T09:35:51.007Z,980.6
2017-11-27T09:36:54.770Z,980.6
2017-11-27T09:37:57.938Z,980.6
2017-11-27T09:39:00.608Z,980.6
2017-11-27T09:40:13.370Z,980.4
2017-11-27T09:41:16.778Z,980.6
2017-11-27T09:42:19.773Z,980.5
2017-11-27T09:43:22.596Z,980.5
2017-11-27T09:44:25.730Z,980.4
2017-11-27T09:45:29.561Z,980.5
2017-11-27T09:46:34.436Z,980.5
2017-11-27T09:47:38.343Z,980.5
2017-11-27T09:48:42.640Z,980.6
2017-11-27T09:49:47.426Z,980.5
2017-11-27T09:50:50.579Z,980.4
2017-11-27T09:51:53.635Z,980.5
2017-11-27T09:52:56.401Z,980.3
2017-11-27T09:53:59.574Z,980.2
2017-11-27T09:55:08.463Z,980.3
2017-11-27T09:56:12.317Z,980.3
2017-11-27T09:57:19.302Z,980.2
2017-11-27T09:58:23.658Z,980.1
2017-11-27T09:59:27.166Z,980.2
2017-11-27T10:00:30.767Z,980
2017-11-27T10:01:33.862Z,980.2
2017-11-27T10:02:36.646Z,980.1
2017-11-27T10:03:39.437Z,980.1
2017-11-27T10:04:42.072Z,980.1
2017-11-27T10:05:44.890Z,980.1
2017-11-27T10:06:49.638Z,980.1
2017-11-27T10:07:52.364Z,980
2017-11-27T10:08:55.214Z,980
2017-11-27T10:09:58.213Z,980
2017-11-27T10:11:01.822Z,979.9
2017-11-27T10:12:07.023Z,979.9
2017-11-27T10:13:10.783Z,980
2017-11-27T10:14:13.438Z,979.9
2017-11-27T10:15:17.466Z,979.9
2017-11-27T10:16:22.505Z,979.8
2017-11-27T10:17:25.610Z,979.8
2017-11-27T10:18:28.661Z,979.8
2017-11-27T10:19:31.967Z,979.7
2017-11-27T10:20:35.970Z,979.6
2017-11-27T10:21:39.802Z,979.6
2017-11-27T10:22:42.585Z,979.6
2017-11-27T10:23:46.982Z,979.6
2017-11-27T10:24:49.856Z,979.6
2017-11-27T10:25:53.590Z,979.6
2017-11-27T10:26:56.457Z,979.5
2017-11-27T10:27:59.593Z,979.4
2017-11-27T10:29:04.577Z,979.4
2017-11-27T10:30:16.315Z,979.4
2017-11-27T10:31:19.692Z,979.4
2017-11-27T10:32:24.785Z,979.4
2017-11-27T10:33:27.634Z,979.4
2017-11-27T10:34:30.436Z,979.2
2017-11-27T10:35:34.022Z,979.3
2017-11-27T10:36:37.003Z,979.3
2017-11-27T10:37:40.128Z,979.2
2017-11-27T10:38:42.896Z,979.3
2017-11-27T10:39:45.693Z,978.9
2017-11-27T10:40:48.815Z,979.2
2017-11-27T10:41:51.585Z,979.2
2017-11-27T10:42:54.465Z,979.2
2017-11-27T10:43:57.274Z,979
2017-11-27T10:45:00.093Z,979.2
2017-11-27T10:46:02.982Z,979.1
2017-11-27T10:47:06.025Z,979
2017-11-27T10:48:08.726Z,979.1
2017-11-27T10:49:11.587Z,979
2017-11-27T10:50:16.099Z,979
2017-11-27T10:51:19.197Z,978.9
2017-11-27T10:52:22.984Z,978.9
2017-11-27T10:53:25.809Z,978.9
2017-11-27T10:54:28.829Z,978.9
2017-11-27T10:55:31.518Z,978.9
2017-11-27T10:56:34.383Z,978.9
2017-11-27T10:57:37.178Z,978.8
2017-11-27T10:58:40.033Z,978.8
2017-11-27T10:59:42.754Z,978.8
2017-11-27T11:00:46.923Z,978.7
2017-11-27T11:01:49.836Z,978.6
2017-11-27T11:02:52.507Z,978.9
2017-11-27T11:03:55.515Z,978.7
2017-11-27T11:04:58.414Z,978.7
2017-11-27T11:06:01.811Z,978.6
2017-11-27T11:07:05.501Z,978.5
2017-11-27T11:08:08.766Z,978.6
2017-11-27T11:09:11.591Z,978.6
2017-11-27T11:10:16.344Z,978.7
2017-11-27T11:11:20.305Z,978.5
2017-11-27T11:12:23.006Z,978.6
2017-11-27T11:13:25.784Z,978.5
2017-11-27T11:14:28.827Z,978.6
2017-11-27T11:15:31.998Z,978.4
2017-11-27T11:16:34.748Z,978.4
2017-11-27T11:17:37.516Z,978.4
2017-11-27T11:18:40.325Z,978.3
2017-11-27T11:19:43.084Z,978.4
2017-11-27T11:20:46.273Z,978.3
2017-11-27T11:21:49.259Z,978.3
2017-11-27T11:22:51.984Z,978.3
2017-11-27T11:23:54.730Z,978.2
2017-11-27T11:24:57.497Z,978.2
2017-11-27T11:26:00.292Z,978.2
2017-11-27T11:27:03.152Z,978.2
2017-11-27T11:28:11.825Z,978.2
2017-11-27T11:29:14.828Z,978
2017-11-27T11:30:18.363Z,978.2
2017-11-27T11:31:28.075Z,978.1
2017-11-27T11:32:30.892Z,978
2017-11-27T11:33:34.712Z,978.1
2017-11-27T11:34:37.413Z,978
2017-11-27T11:35:41.116Z,977.9
2017-11-27T11:36:43.718Z,977.9
2017-11-27T11:37:46.345Z,977.9
2017-11-27T11:38:49.171Z,977.9
2017-11-27T11:39:51.868Z,977.8
2017-11-27T11:40:55.783Z,978
2017-11-27T11:41:58.541Z,977.8
2017-11-27T11:43:01.191Z,977.6
2017-11-27T11:44:04.184Z,977.9
2017-11-27T11:45:11.560Z,977.8
2017-11-27T11:46:14.356Z,977.8
2017-11-27T11:47:16.978Z,977.8
2017-11-27T11:48:19.999Z,977.8
2017-11-27T11:49:23.710Z,977.6
2017-11-27T11:50:28.933Z,977.6
2017-11-27T11:51:32.853Z,977.5
2017-11-27T11:52:35.513Z,977.6
2017-11-27T11:53:39.101Z,977.5
2017-11-27T11:54:42.493Z,977.5
2017-11-27T11:55:46.372Z,977.5
2017-11-27T11:56:49.157Z,977.4
2017-11-27T11:57:51.863Z,977.4
2017-11-27T11:58:54.555Z,977.4
2017-11-27T11:59:57.203Z,977.4
2017-11-27T12:01:02.326Z,977.3
2017-11-27T12:02:07.568Z,977.3
2017-11-27T12:03:10.316Z,977.2
2017-11-27T12:04:13.228Z,977.1
2017-11-27T12:05:16.104Z,977.2
2017-11-27T12:06:20.473Z,977.1
2017-11-27T12:07:27.799Z,977.1
2017-11-27T12:08:31.158Z,976.9
2017-11-27T12:09:34.166Z,977
2017-11-27T12:10:42.686Z,977
2017-11-27T12:11:45.553Z,977
2017-11-27T12:12:50.002Z,977
2017-11-27T12:13:52.841Z,976.9
2017-11-27T12:14:55.402Z,976.9
2017-11-27T12:15:58.367Z,976.9
2017-11-27T12:17:01.043Z,976.7
2017-11-27T12:18:04.676Z,977
2017-11-27T12:19:08.278Z,976.8
2017-11-27T12:20:15.278Z,976.7
2017-11-27T12:21:23.022Z,976.8
2017-11-27T12:22:27.669Z,976.7
2017-11-27T12:23:30.904Z,976.7
2017-11-27T12:24:33.834Z,976.6
2017-11-27T12:25:36.959Z,976.6
2017-11-27T12:26:39.879Z,976.6
2017-11-27T12:27:46.429Z,976.6
2017-11-27T12:28:50.019Z,976.5
2017-11-27T12:29:53.688Z,976.4
2017-11-27T12:30:58.741Z,976.5
2017-11-27T12:32:10.798Z,976.3
2017-11-27T12:33:13.571Z,976.3
2017-11-27T12:34:16.157Z,976.3
2017-11-27T12:35:21.084Z,976.4
2017-11-27T12:36:25.567Z,976.3
2017-11-27T12:37:28.394Z,976.2
2017-11-27T12:38:31.135Z,976.2
2017-11-27T12:39:33.883Z,976.2
2017-11-27T12:40:36.775Z,976.2
2017-11-27T12:41:40.186Z,976.2
2017-11-27T12:42:42.862Z,976.1
2017-11-27T12:43:45.667Z,976.1
2017-11-27T12:44:48.327Z,976.1
2017-11-27T12:45:58.262Z,975.9
2017-11-27T12:47:01.041Z,976
2017-11-27T12:48:04.688Z,976
2017-11-27T12:49:07.439Z,976.1
2017-11-27T12:50:15.276Z,976
2017-11-27T12:51:18.073Z,975.9
2017-11-27T12:52:21.130Z,975.9
2017-11-27T12:53:24.188Z,975.8
2017-11-27T12:54:27.228Z,975.9
2017-11-27T12:55:30.227Z,976
2017-11-27T12:56:36.080Z,975.8
2017-11-27T12:57:39.185Z,975.8
2017-11-27T12:58:42.925Z,975.8
2017-11-27T12:59:46.258Z,975.8
2017-11-27T13:00:50.591Z,975.7
2017-11-27T13:01:53.206Z,975.6
2017-11-27T13:02:55.854Z,975.5
2017-11-27T13:03:58.547Z,975.6
2017-11-27T13:05:01.239Z,975.5
2017-11-27T13:06:06.755Z,975.6
2017-11-27T13:07:10.952Z,975.6
2017-11-27T13:08:14.597Z,975.4
2017-11-27T13:09:17.180Z,975.5
2017-11-27T13:10:20.256Z,975.3
2017-11-27T13:11:23.105Z,975.5
2017-11-27T13:12:25.970Z,975.5
2017-11-27T13:13:28.899Z,975.5
2017-11-27T13:14:31.895Z,975.5
2017-11-27T13:15:35.677Z,975.4
2017-11-27T13:16:38.475Z,975.4
2017-11-27T13:17:41.208Z,975.3
2017-11-27T13:18:44.656Z,975.3
2017-11-27T13:19:47.254Z,975.4
2017-11-27T13:20:50.328Z,975.3
2017-11-27T13:21:53.078Z,975.2
2017-11-27T13:22:55.710Z,975.3
2017-11-27T13:23:58.373Z,975.2
2017-11-27T13:25:01.056Z,975.2
2017-11-27T13:26:03.693Z,975.2
2017-11-27T13:27:07.285Z,975.1
2017-11-27T13:28:14.081Z,975.2
2017-11-27T13:29:16.701Z,975
2017-11-27T13:30:19.591Z,975.1
2017-11-27T13:31:22.534Z,974.9
2017-11-27T13:32:26.681Z,975
2017-11-27T13:33:30.312Z,974.9
2017-11-27T13:34:33.121Z,975
2017-11-27T13:35:36.084Z,975
2017-11-27T13:36:39.021Z,975
2017-11-27T13:37:41.725Z,975
2017-11-27T13:38:44.410Z,975
2017-11-27T13:39:46.989Z,974.9
2017-11-27T13:40:51.572Z,974.6
2017-11-27T13:41:54.303Z,974.8
2017-11-27T13:42:58.243Z,974.9
2017-11-27T13:44:01.195Z,974.9
2017-11-27T13:45:11.209Z,974.9